sensor_id;sensor_type;location;lat;lon;timestamp;temperature;humidity
12568;DHT22;6349;50.904;6.136;2023-07-30T00:00:19;17.80;99.90
12568;DHT22;6349;50.904;6.136;2023-07-30T00:02:20;17.80;99.90
12568;DHT22;6349;50.904;6.136;2023-07-30T00:04:20;17.80;99.90
12568;DHT22;6349;50.904;6.136;2023-07-30T00:06:21;17.80;99.90
12568;DHT22;6349;50.904;6.136;2023-07-30T00:08:22;17.80;99.90
12568;DHT22;6349;50.904;6.136;2023-07-30T00:10:23;17.80;99.90
12568;DHT22;6349;50.904;6.136;2023-07-30T00:12:23;17.70;99.90
12568;DHT22;6349;50.904;6.136;2023-07-30T00:14:24;17.80;99.90
12568;DHT22;6349;50.904;6.136;2023-07-30T00:16:27;17.80;99.90
12568;DHT22;6349;50.904;6.136;2023-07-30T00:18:28;17.80;99.90
12568;DHT22;6349;50.904;6.136;2023-07-30T00:20:29;17.70;99.90
12568;DHT22;6349;50.904;6.136;2023-07-30T00:22:29;17.80;99.90
12568;DHT22;6349;50.904;6.136;2023-07-30T00:24:30;17.70;99.90
12568;DHT22;6349;50.904;6.136;2023-07-30T00:26:31;17.70;99.90
12568;DHT22;6349;50.904;6.136;2023-07-30T00:28:31;17.70;99.90
12568;DHT22;6349;50.904;6.136;2023-07-30T00:30:32;17.70;99.90
12568;DHT22;6349;50.904;6.136;2023-07-30T00:32:33;17.70;99.90
12568;DHT22;6349;50.904;6.136;2023-07-30T00:34:33;17.60;99.90
12568;DHT22;6349;50.904;6.136;2023-07-30T00:36:34;17.60;99.90
12568;DHT22;6349;50.904;6.136;2023-07-30T00:38:34;17.50;99.90
12568;DHT22;6349;50.904;6.136;2023-07-30T00:40:41;17.60;99.90
12568;DHT22;6349;50.904;6.136;2023-07-30T00:42:42;17.60;99.90
12568;DHT22;6349;50.904;6.136;2023-07-30T00:44:42;17.60;99.90
12568;DHT22;6349;50.904;6.136;2023-07-30T00:46:43;17.50;99.90
12568;DHT22;6349;50.904;6.136;2023-07-30T00:48:43;17.50;99.90
12568;DHT22;6349;50.904;6.136;2023-07-30T00:50:44;17.50;99.90
12568;DHT22;6349;50.904;6.136;2023-07-30T00:52:45;17.50;99.90
12568;DHT22;6349;50.904;6.136;2023-07-30T00:54:47;17.50;99.90
12568;DHT22;6349;50.904;6.136;2023-07-30T00:56:52;17.50;99.90
12568;DHT22;6349;50.904;6.136;2023-07-30T00:58:53;17.50;99.90
12568;DHT22;6349;50.904;6.136;2023-07-30T01:00:55;17.60;99.90
12568;DHT22;6349;50.904;6.136;2023-07-30T01:02:56;17.50;99.90
12568;DHT22;6349;50.904;6.136;2023-07-30T01:04:57;17.60;99.90
12568;DHT22;6349;50.904;6.136;2023-07-30T01:07:00;17.50;99.90
12568;DHT22;6349;50.904;6.136;2023-07-30T01:09:01;17.60;99.90
12568;DHT22;6349;50.904;6.136;2023-07-30T01:11:04;17.50;99.90
12568;DHT22;6349;50.904;6.136;2023-07-30T01:13:06;17.50;99.90
12568;DHT22;6349;50.904;6.136;2023-07-30T01:15:09;17.50;99.90
12568;DHT22;6349;50.904;6.136;2023-07-30T01:17:10;17.50;99.90
12568;DHT22;6349;50.904;6.136;2023-07-30T01:19:12;17.50;99.90
12568;DHT22;6349;50.904;6.136;2023-07-30T01:21:12;17.50;99.90
12568;DHT22;6349;50.904;6.136;2023-07-30T01:23:13;17.60;99.90
12568;DHT22;6349;50.904;6.136;2023-07-30T01:25:14;17.60;99.90
12568;DHT22;6349;50.904;6.136;2023-07-30T01:27:22;17.50;99.90
12568;DHT22;6349;50.904;6.136;2023-07-30T01:29:41;17.50;99.90
12568;DHT22;6349;50.904;6.136;2023-07-30T01:31:43;17.50;99.90
12568;DHT22;6349;50.904;6.136;2023-07-30T01:33:49;17.50;99.90
12568;DHT22;6349;50.904;6.136;2023-07-30T01:35:51;17.50;99.90
12568;DHT22;6349;50.904;6.136;2023-07-30T01:37:53;17.50;99.90
12568;DHT22;6349;50.904;6.136;2023-07-30T01:39:54;17.50;99.90
12568;DHT22;6349;50.904;6.136;2023-07-30T01:41:55;17.50;99.90
12568;DHT22;6349;50.904;6.136;2023-07-30T01:43:55;17.60;99.90
12568;DHT22;6349;50.904;6.136;2023-07-30T01:45:56;17.60;99.90
12568;DHT22;6349;50.904;6.136;2023-07-30T01:47:57;17.50;99.90
12568;DHT22;6349;50.904;6.136;2023-07-30T01:49:58;17.50;99.90
12568;DHT22;6349;50.904;6.136;2023-07-30T01:51:58;17.50;99.90
12568;DHT22;6349;50.904;6.136;2023-07-30T01:53:59;17.60;99.90
12568;DHT22;6349;50.904;6.136;2023-07-30T01:56:00;17.50;99.90
12568;DHT22;6349;50.904;6.136;2023-07-30T01:58:00;17.50;99.90
12568;DHT22;6349;50.904;6.136;2023-07-30T02:00:01;17.50;99.90
12568;DHT22;6349;50.904;6.136;2023-07-30T02:02:01;17.50;99.90
12568;DHT22;6349;50.904;6.136;2023-07-30T02:04:02;17.50;99.90
12568;DHT22;6349;50.904;6.136;2023-07-30T02:06:05;17.50;99.90
12568;DHT22;6349;50.904;6.136;2023-07-30T02:08:05;17.40;99.90
12568;DHT22;6349;50.904;6.136;2023-07-30T02:10:06;17.40;99.90
12568;DHT22;6349;50.904;6.136;2023-07-30T02:12:07;17.50;99.90
12568;DHT22;6349;50.904;6.136;2023-07-30T02:14:09;17.40;99.90
12568;DHT22;6349;50.904;6.136;2023-07-30T02:16:09;17.30;99.90
12568;DHT22;6349;50.904;6.136;2023-07-30T02:18:10;17.40;99.90
12568;DHT22;6349;50.904;6.136;2023-07-30T02:20:11;17.40;99.90
12568;DHT22;6349;50.904;6.136;2023-07-30T02:22:11;17.40;99.90
12568;DHT22;6349;50.904;6.136;2023-07-30T02:24:12;17.30;99.90
12568;DHT22;6349;50.904;6.136;2023-07-30T02:26:12;17.30;99.90
12568;DHT22;6349;50.904;6.136;2023-07-30T02:28:13;17.30;99.90
12568;DHT22;6349;50.904;6.136;2023-07-30T02:30:14;17.30;99.90
12568;DHT22;6349;50.904;6.136;2023-07-30T02:32:15;17.30;99.90
12568;DHT22;6349;50.904;6.136;2023-07-30T02:34:16;17.20;99.90
12568;DHT22;6349;50.904;6.136;2023-07-30T02:36:16;17.20;99.90
12568;DHT22;6349;50.904;6.136;2023-07-30T02:38:17;17.00;99.90
12568;DHT22;6349;50.904;6.136;2023-07-30T02:40:17;17.00;99.90
12568;DHT22;6349;50.904;6.136;2023-07-30T02:42:18;17.00;99.90
12568;DHT22;6349;50.904;6.136;2023-07-30T02:44:19;16.80;99.90
12568;DHT22;6349;50.904;6.136;2023-07-30T02:46:19;16.80;99.90
12568;DHT22;6349;50.904;6.136;2023-07-30T02:48:20;16.80;99.90
12568;DHT22;6349;50.904;6.136;2023-07-30T02:50:20;16.80;99.90
12568;DHT22;6349;50.904;6.136;2023-07-30T02:52:21;16.80;99.90
12568;DHT22;6349;50.904;6.136;2023-07-30T02:54:21;16.80;99.90
12568;DHT22;6349;50.904;6.136;2023-07-30T02:56:22;16.80;99.90
12568;DHT22;6349;50.904;6.136;2023-07-30T02:58:23;16.80;99.90
12568;DHT22;6349;50.904;6.136;2023-07-30T03:00:23;16.80;99.90
12568;DHT22;6349;50.904;6.136;2023-07-30T03:02:24;16.80;99.90
12568;DHT22;6349;50.904;6.136;2023-07-30T03:04:24;16.90;99.90
12568;DHT22;6349;50.904;6.136;2023-07-30T03:06:25;16.90;99.90
12568;DHT22;6349;50.904;6.136;2023-07-30T03:08:26;16.90;99.90
12568;DHT22;6349;50.904;6.136;2023-07-30T03:10:26;16.90;99.90
12568;DHT22;6349;50.904;6.136;2023-07-30T03:12:27;16.90;99.90
12568;DHT22;6349;50.904;6.136;2023-07-30T03:14:29;16.90;99.90
12568;DHT22;6349;50.904;6.136;2023-07-30T03:16:29;16.80;99.90
12568;DHT22;6349;50.904;6.136;2023-07-30T03:18:30;16.80;99.90
12568;DHT22;6349;50.904;6.136;2023-07-30T03:20:30;16.80;99.90
12568;DHT22;6349;50.904;6.136;2023-07-30T03:22:31;16.80;99.90
12568;DHT22;6349;50.904;6.136;2023-07-30T03:24:32;16.70;99.90
12568;DHT22;6349;50.904;6.136;2023-07-30T03:26:32;16.70;99.90
12568;DHT22;6349;50.904;6.136;2023-07-30T03:28:33;16.70;99.90
12568;DHT22;6349;50.904;6.136;2023-07-30T03:30:33;16.60;99.90
12568;DHT22;6349;50.904;6.136;2023-07-30T03:32:34;16.60;99.90
12568;DHT22;6349;50.904;6.136;2023-07-30T03:34:34;16.60;99.90
12568;DHT22;6349;50.904;6.136;2023-07-30T03:36:35;16.60;99.90
12568;DHT22;6349;50.904;6.136;2023-07-30T03:38:36;16.60;99.90
12568;DHT22;6349;50.904;6.136;2023-07-30T03:40:39;16.60;99.90
12568;DHT22;6349;50.904;6.136;2023-07-30T03:42:40;16.60;99.90
12568;DHT22;6349;50.904;6.136;2023-07-30T03:44:40;16.60;99.90
12568;DHT22;6349;50.904;6.136;2023-07-30T03:46:41;16.60;99.90
12568;DHT22;6349;50.904;6.136;2023-07-30T03:48:41;16.60;99.90
12568;DHT22;6349;50.904;6.136;2023-07-30T03:50:42;16.60;99.90
12568;DHT22;6349;50.904;6.136;2023-07-30T03:52:43;16.60;99.90
12568;DHT22;6349;50.904;6.136;2023-07-30T03:54:43;16.70;99.90
12568;DHT22;6349;50.904;6.136;2023-07-30T03:56:44;16.60;99.90
12568;DHT22;6349;50.904;6.136;2023-07-30T03:58:44;16.60;99.90
12568;DHT22;6349;50.904;6.136;2023-07-30T04:00:45;16.60;99.90
12568;DHT22;6349;50.904;6.136;2023-07-30T04:02:46;16.60;99.90
12568;DHT22;6349;50.904;6.136;2023-07-30T04:04:46;16.60;99.90
12568;DHT22;6349;50.904;6.136;2023-07-30T04:06:49;16.60;99.90
12568;DHT22;6349;50.904;6.136;2023-07-30T04:08:49;16.50;99.90
12568;DHT22;6349;50.904;6.136;2023-07-30T04:10:50;16.50;99.90
12568;DHT22;6349;50.904;6.136;2023-07-30T04:12:51;16.50;99.90
12568;DHT22;6349;50.904;6.136;2023-07-30T04:14:52;16.50;99.90
12568;DHT22;6349;50.904;6.136;2023-07-30T04:16:52;16.50;99.90
12568;DHT22;6349;50.904;6.136;2023-07-30T04:18:53;16.50;99.90
12568;DHT22;6349;50.904;6.136;2023-07-30T04:20:56;16.40;99.90
12568;DHT22;6349;50.904;6.136;2023-07-30T04:22:57;16.50;99.90
12568;DHT22;6349;50.904;6.136;2023-07-30T04:24:57;16.40;99.90
12568;DHT22;6349;50.904;6.136;2023-07-30T04:26:58;16.40;99.90
12568;DHT22;6349;50.904;6.136;2023-07-30T04:28:58;16.30;99.90
12568;DHT22;6349;50.904;6.136;2023-07-30T04:30:59;16.30;99.90
12568;DHT22;6349;50.904;6.136;2023-07-30T04:32:59;16.20;99.90
12568;DHT22;6349;50.904;6.136;2023-07-30T04:35:01;16.20;99.90
12568;DHT22;6349;50.904;6.136;2023-07-30T04:37:03;16.10;99.90
12568;DHT22;6349;50.904;6.136;2023-07-30T04:39:04;16.10;99.90
12568;DHT22;6349;50.904;6.136;2023-07-30T04:41:04;16.00;99.90
12568;DHT22;6349;50.904;6.136;2023-07-30T04:43:05;16.00;99.90
12568;DHT22;6349;50.904;6.136;2023-07-30T04:45:06;16.00;99.90
12568;DHT22;6349;50.904;6.136;2023-07-30T04:47:07;15.90;99.90
12568;DHT22;6349;50.904;6.136;2023-07-30T04:49:07;15.80;99.90
12568;DHT22;6349;50.904;6.136;2023-07-30T04:51:08;15.80;99.90
12568;DHT22;6349;50.904;6.136;2023-07-30T04:53:09;15.70;99.90
12568;DHT22;6349;50.904;6.136;2023-07-30T04:55:09;15.70;99.90
12568;DHT22;6349;50.904;6.136;2023-07-30T04:57:10;15.80;99.90
12568;DHT22;6349;50.904;6.136;2023-07-30T04:59:11;15.70;99.90
12568;DHT22;6349;50.904;6.136;2023-07-30T05:01:11;15.80;99.90
12568;DHT22;6349;50.904;6.136;2023-07-30T05:03:12;15.80;99.90
12568;DHT22;6349;50.904;6.136;2023-07-30T05:05:13;15.70;99.90
12568;DHT22;6349;50.904;6.136;2023-07-30T05:07:13;15.60;99.90
12568;DHT22;6349;50.904;6.136;2023-07-30T05:09:14;15.50;99.90
12568;DHT22;6349;50.904;6.136;2023-07-30T05:11:14;15.50;99.90
12568;DHT22;6349;50.904;6.136;2023-07-30T05:13:15;15.40;99.90
12568;DHT22;6349;50.904;6.136;2023-07-30T05:15:16;15.40;99.90
12568;DHT22;6349;50.904;6.136;2023-07-30T05:17:16;15.40;99.90
12568;DHT22;6349;50.904;6.136;2023-07-30T05:19:17;15.40;99.90
12568;DHT22;6349;50.904;6.136;2023-07-30T05:21:17;15.40;99.90
12568;DHT22;6349;50.904;6.136;2023-07-30T05:23:20;15.40;99.90
12568;DHT22;6349;50.904;6.136;2023-07-30T05:25:20;15.40;99.90
12568;DHT22;6349;50.904;6.136;2023-07-30T05:27:21;15.50;99.90
12568;DHT22;6349;50.904;6.136;2023-07-30T05:29:22;15.50;99.90
12568;DHT22;6349;50.904;6.136;2023-07-30T05:31:22;15.50;99.90
12568;DHT22;6349;50.904;6.136;2023-07-30T05:33:23;15.60;99.90
12568;DHT22;6349;50.904;6.136;2023-07-30T05:35:23;15.50;99.90
12568;DHT22;6349;50.904;6.136;2023-07-30T05:37:24;15.60;99.90
12568;DHT22;6349;50.904;6.136;2023-07-30T05:39:25;15.60;99.90
12568;DHT22;6349;50.904;6.136;2023-07-30T05:41:26;15.60;99.90
12568;DHT22;6349;50.904;6.136;2023-07-30T05:43:27;15.70;99.90
12568;DHT22;6349;50.904;6.136;2023-07-30T05:45:28;15.70;99.90
12568;DHT22;6349;50.904;6.136;2023-07-30T05:47:29;15.70;99.90
12568;DHT22;6349;50.904;6.136;2023-07-30T05:49:30;15.70;99.90
12568;DHT22;6349;50.904;6.136;2023-07-30T05:51:30;15.80;99.90
12568;DHT22;6349;50.904;6.136;2023-07-30T05:53:31;15.90;99.90
12568;DHT22;6349;50.904;6.136;2023-07-30T05:55:32;15.90;99.90
12568;DHT22;6349;50.904;6.136;2023-07-30T05:57:32;16.00;99.90
12568;DHT22;6349;50.904;6.136;2023-07-30T05:59:33;16.00;99.90
12568;DHT22;6349;50.904;6.136;2023-07-30T06:01:34;16.10;99.90
12568;DHT22;6349;50.904;6.136;2023-07-30T06:03:34;16.00;99.90
12568;DHT22;6349;50.904;6.136;2023-07-30T06:05:42;16.00;99.90
12568;DHT22;6349;50.904;6.136;2023-07-30T06:07:46;16.00;99.90
12568;DHT22;6349;50.904;6.136;2023-07-30T06:09:46;16.00;99.90
12568;DHT22;6349;50.904;6.136;2023-07-30T06:11:47;16.10;99.90
12568;DHT22;6349;50.904;6.136;2023-07-30T06:13:48;16.10;99.90
12568;DHT22;6349;50.904;6.136;2023-07-30T06:15:48;16.10;99.90
12568;DHT22;6349;50.904;6.136;2023-07-30T06:17:49;16.10;99.90
12568;DHT22;6349;50.904;6.136;2023-07-30T06:19:49;16.10;99.90
12568;DHT22;6349;50.904;6.136;2023-07-30T06:21:50;16.20;99.90
12568;DHT22;6349;50.904;6.136;2023-07-30T06:23:51;16.20;99.90
12568;DHT22;6349;50.904;6.136;2023-07-30T06:25:52;16.30;99.90
12568;DHT22;6349;50.904;6.136;2023-07-30T06:27:52;16.30;99.90
12568;DHT22;6349;50.904;6.136;2023-07-30T06:29:54;16.40;99.90
12568;DHT22;6349;50.904;6.136;2023-07-30T06:31:55;16.40;99.90
12568;DHT22;6349;50.904;6.136;2023-07-30T06:33:55;16.40;99.90
12568;DHT22;6349;50.904;6.136;2023-07-30T06:35:56;16.40;99.90
12568;DHT22;6349;50.904;6.136;2023-07-30T06:37:56;16.40;99.90
12568;DHT22;6349;50.904;6.136;2023-07-30T06:39:57;16.50;99.90
12568;DHT22;6349;50.904;6.136;2023-07-30T06:41:58;16.50;99.90
12568;DHT22;6349;50.904;6.136;2023-07-30T06:43:58;16.50;99.90
12568;DHT22;6349;50.904;6.136;2023-07-30T06:45:59;16.50;99.90
12568;DHT22;6349;50.904;6.136;2023-07-30T06:47:59;16.50;99.90
12568;DHT22;6349;50.904;6.136;2023-07-30T06:50:00;16.50;99.90
12568;DHT22;6349;50.904;6.136;2023-07-30T06:52:01;16.50;99.90
12568;DHT22;6349;50.904;6.136;2023-07-30T06:54:01;16.60;99.90
12568;DHT22;6349;50.904;6.136;2023-07-30T06:56:02;16.70;99.90
12568;DHT22;6349;50.904;6.136;2023-07-30T06:58:03;16.70;99.90
12568;DHT22;6349;50.904;6.136;2023-07-30T07:00:04;16.70;99.90
12568;DHT22;6349;50.904;6.136;2023-07-30T07:02:05;16.70;99.90
12568;DHT22;6349;50.904;6.136;2023-07-30T07:04:06;16.70;99.90
12568;DHT22;6349;50.904;6.136;2023-07-30T07:06:07;16.70;99.90
12568;DHT22;6349;50.904;6.136;2023-07-30T07:08:07;16.70;99.90
12568;DHT22;6349;50.904;6.136;2023-07-30T07:10:08;16.80;99.90
12568;DHT22;6349;50.904;6.136;2023-07-30T07:12:11;16.70;99.90
12568;DHT22;6349;50.904;6.136;2023-07-30T07:14:11;16.70;99.90
12568;DHT22;6349;50.904;6.136;2023-07-30T07:16:12;16.70;99.90
12568;DHT22;6349;50.904;6.136;2023-07-30T07:18:12;16.70;99.90
12568;DHT22;6349;50.904;6.136;2023-07-30T07:20:14;16.70;99.90
12568;DHT22;6349;50.904;6.136;2023-07-30T07:22:15;16.70;99.90
12568;DHT22;6349;50.904;6.136;2023-07-30T07:24:17;16.80;99.90
12568;DHT22;6349;50.904;6.136;2023-07-30T07:26:18;16.80;99.90
12568;DHT22;6349;50.904;6.136;2023-07-30T07:28:19;16.80;99.90
12568;DHT22;6349;50.904;6.136;2023-07-30T07:30:19;16.80;99.90
12568;DHT22;6349;50.904;6.136;2023-07-30T07:32:20;16.80;99.90
12568;DHT22;6349;50.904;6.136;2023-07-30T07:34:20;16.70;99.90
12568;DHT22;6349;50.904;6.136;2023-07-30T07:36:22;16.60;99.90
12568;DHT22;6349;50.904;6.136;2023-07-30T07:38:22;16.70;99.90
12568;DHT22;6349;50.904;6.136;2023-07-30T07:40:24;16.70;99.90
12568;DHT22;6349;50.904;6.136;2023-07-30T07:42:24;16.80;99.90
12568;DHT22;6349;50.904;6.136;2023-07-30T07:44:25;16.90;99.90
12568;DHT22;6349;50.904;6.136;2023-07-30T07:46:26;16.90;99.90
12568;DHT22;6349;50.904;6.136;2023-07-30T07:48:27;17.00;99.90
12568;DHT22;6349;50.904;6.136;2023-07-30T07:50:28;17.00;99.90
12568;DHT22;6349;50.904;6.136;2023-07-30T07:52:28;17.00;99.90
12568;DHT22;6349;50.904;6.136;2023-07-30T07:54:29;17.00;99.90
12568;DHT22;6349;50.904;6.136;2023-07-30T07:56:30;17.00;99.90
12568;DHT22;6349;50.904;6.136;2023-07-30T07:58:31;17.00;99.90
12568;DHT22;6349;50.904;6.136;2023-07-30T08:00:32;17.00;99.90
12568;DHT22;6349;50.904;6.136;2023-07-30T08:02:33;17.10;99.90
12568;DHT22;6349;50.904;6.136;2023-07-30T08:04:34;17.00;99.90
12568;DHT22;6349;50.904;6.136;2023-07-30T08:06:34;17.00;99.90
12568;DHT22;6349;50.904;6.136;2023-07-30T08:08:35;17.10;99.90
12568;DHT22;6349;50.904;6.136;2023-07-30T08:10:38;17.10;99.90
12568;DHT22;6349;50.904;6.136;2023-07-30T08:12:39;17.20;99.90
12568;DHT22;6349;50.904;6.136;2023-07-30T08:14:40;17.10;99.90
12568;DHT22;6349;50.904;6.136;2023-07-30T08:16:41;17.10;99.90
12568;DHT22;6349;50.904;6.136;2023-07-30T08:18:43;17.20;99.90
12568;DHT22;6349;50.904;6.136;2023-07-30T08:20:46;17.20;99.90
12568;DHT22;6349;50.904;6.136;2023-07-30T08:22:48;17.30;99.90
12568;DHT22;6349;50.904;6.136;2023-07-30T08:24:50;17.40;99.90
12568;DHT22;6349;50.904;6.136;2023-07-30T08:26:52;17.50;99.90
12568;DHT22;6349;50.904;6.136;2023-07-30T08:28:54;17.60;99.90
12568;DHT22;6349;50.904;6.136;2023-07-30T08:31:05;17.60;99.90
12568;DHT22;6349;50.904;6.136;2023-07-30T08:33:07;17.60;99.90
12568;DHT22;6349;50.904;6.136;2023-07-30T08:35:09;17.60;99.90
12568;DHT22;6349;50.904;6.136;2023-07-30T08:37:11;17.60;99.90
12568;DHT22;6349;50.904;6.136;2023-07-30T08:39:13;17.60;99.90
12568;DHT22;6349;50.904;6.136;2023-07-30T08:41:15;17.60;99.90
12568;DHT22;6349;50.904;6.136;2023-07-30T08:43:20;17.60;99.90
12568;DHT22;6349;50.904;6.136;2023-07-30T08:45:22;17.60;99.90
12568;DHT22;6349;50.904;6.136;2023-07-30T08:47:24;17.60;99.90
12568;DHT22;6349;50.904;6.136;2023-07-30T08:49:25;17.60;99.90
12568;DHT22;6349;50.904;6.136;2023-07-30T08:51:31;17.60;99.90
12568;DHT22;6349;50.904;6.136;2023-07-30T08:53:33;17.50;99.90
12568;DHT22;6349;50.904;6.136;2023-07-30T08:55:39;17.50;99.90
12568;DHT22;6349;50.904;6.136;2023-07-30T08:57:41;17.60;99.90
12568;DHT22;6349;50.904;6.136;2023-07-30T09:00:08;17.50;99.90
12568;DHT22;6349;50.904;6.136;2023-07-30T09:02:28;17.60;99.90
12568;DHT22;6349;50.904;6.136;2023-07-30T09:04:34;17.60;99.90
12568;DHT22;6349;50.904;6.136;2023-07-30T09:06:36;17.90;99.90
12568;DHT22;6349;50.904;6.136;2023-07-30T09:08:39;18.00;99.90
12568;DHT22;6349;50.904;6.136;2023-07-30T09:10:41;18.20;99.90
12568;DHT22;6349;50.904;6.136;2023-07-30T09:12:43;18.10;99.90
12568;DHT22;6349;50.904;6.136;2023-07-30T09:14:50;18.20;99.90
12568;DHT22;6349;50.904;6.136;2023-07-30T09:17:01;18.20;99.90
12568;DHT22;6349;50.904;6.136;2023-07-30T09:19:05;18.30;99.90
12568;DHT22;6349;50.904;6.136;2023-07-30T09:21:09;18.40;99.90
12568;DHT22;6349;50.904;6.136;2023-07-30T09:23:11;18.40;99.90
12568;DHT22;6349;50.904;6.136;2023-07-30T09:25:12;18.40;99.90
12568;DHT22;6349;50.904;6.136;2023-07-30T09:27:21;18.50;99.90
12568;DHT22;6349;50.904;6.136;2023-07-30T09:29:28;18.50;99.90
12568;DHT22;6349;50.904;6.136;2023-07-30T09:31:30;18.70;99.90
12568;DHT22;6349;50.904;6.136;2023-07-30T09:33:41;18.70;99.90
12568;DHT22;6349;50.904;6.136;2023-07-30T09:35:44;18.90;99.90
12568;DHT22;6349;50.904;6.136;2023-07-30T09:37:46;19.00;99.90
12568;DHT22;6349;50.904;6.136;2023-07-30T09:39:51;19.20;99.90
12568;DHT22;6349;50.904;6.136;2023-07-30T09:41:59;19.30;99.90
12568;DHT22;6349;50.904;6.136;2023-07-30T09:44:02;19.40;99.90
12568;DHT22;6349;50.904;6.136;2023-07-30T09:46:05;19.40;99.90
12568;DHT22;6349;50.904;6.136;2023-07-30T09:48:07;19.50;99.90
12568;DHT22;6349;50.904;6.136;2023-07-30T09:50:08;19.60;99.90
12568;DHT22;6349;50.904;6.136;2023-07-30T09:52:13;19.60;99.90
12568;DHT22;6349;50.904;6.136;2023-07-30T09:54:15;19.70;99.90
12568;DHT22;6349;50.904;6.136;2023-07-30T09:56:19;19.70;99.90
12568;DHT22;6349;50.904;6.136;2023-07-30T09:58:23;19.80;99.90
12568;DHT22;6349;50.904;6.136;2023-07-30T10:00:27;19.70;99.90
12568;DHT22;6349;50.904;6.136;2023-07-30T10:02:32;19.80;99.90
12568;DHT22;6349;50.904;6.136;2023-07-30T10:04:41;19.80;99.90
12568;DHT22;6349;50.904;6.136;2023-07-30T10:07:06;20.00;99.90
12568;DHT22;6349;50.904;6.136;2023-07-30T10:09:12;20.00;99.90
12568;DHT22;6349;50.904;6.136;2023-07-30T10:11:13;20.10;99.90
12568;DHT22;6349;50.904;6.136;2023-07-30T10:13:17;20.10;99.90
12568;DHT22;6349;50.904;6.136;2023-07-30T10:15:20;20.10;99.90
12568;DHT22;6349;50.904;6.136;2023-07-30T10:17:23;19.90;99.90
12568;DHT22;6349;50.904;6.136;2023-07-30T10:19:27;19.80;99.90
12568;DHT22;6349;50.904;6.136;2023-07-30T10:21:33;19.70;99.90
12568;DHT22;6349;50.904;6.136;2023-07-30T10:23:35;19.60;99.90
12568;DHT22;6349;50.904;6.136;2023-07-30T10:25:48;19.50;99.90
12568;DHT22;6349;50.904;6.136;2023-07-30T10:27:51;19.50;99.90
12568;DHT22;6349;50.904;6.136;2023-07-30T10:30:12;19.70;99.90
12568;DHT22;6349;50.904;6.136;2023-07-30T10:32:13;19.90;99.90
12568;DHT22;6349;50.904;6.136;2023-07-30T10:34:14;20.00;99.90
12568;DHT22;6349;50.904;6.136;2023-07-30T10:36:33;20.00;99.90
12568;DHT22;6349;50.904;6.136;2023-07-30T10:38:37;20.00;99.90
12568;DHT22;6349;50.904;6.136;2023-07-30T10:40:39;19.90;99.90
12568;DHT22;6349;50.904;6.136;2023-07-30T10:42:42;19.90;99.90
12568;DHT22;6349;50.904;6.136;2023-07-30T10:44:46;19.80;99.90
12568;DHT22;6349;50.904;6.136;2023-07-30T10:46:48;19.80;99.90
12568;DHT22;6349;50.904;6.136;2023-07-30T10:48:50;19.70;99.90
12568;DHT22;6349;50.904;6.136;2023-07-30T10:50:52;19.70;99.90
12568;DHT22;6349;50.904;6.136;2023-07-30T10:52:54;19.70;99.90
12568;DHT22;6349;50.904;6.136;2023-07-30T10:55:03;19.70;99.90
12568;DHT22;6349;50.904;6.136;2023-07-30T10:57:05;19.70;99.90
12568;DHT22;6349;50.904;6.136;2023-07-30T10:59:08;19.90;99.90
12568;DHT22;6349;50.904;6.136;2023-07-30T11:01:10;20.10;99.90
12568;DHT22;6349;50.904;6.136;2023-07-30T11:03:12;20.20;99.90
12568;DHT22;6349;50.904;6.136;2023-07-30T11:05:17;20.30;99.90
12568;DHT22;6349;50.904;6.136;2023-07-30T11:07:19;20.10;99.90
12568;DHT22;6349;50.904;6.136;2023-07-30T11:09:24;20.00;99.90
12568;DHT22;6349;50.904;6.136;2023-07-30T11:11:27;19.80;99.90
12568;DHT22;6349;50.904;6.136;2023-07-30T11:13:29;19.60;99.90
12568;DHT22;6349;50.904;6.136;2023-07-30T11:15:32;19.60;99.90
12568;DHT22;6349;50.904;6.136;2023-07-30T11:17:35;19.40;99.90
12568;DHT22;6349;50.904;6.136;2023-07-30T11:19:42;19.40;99.90
12568;DHT22;6349;50.904;6.136;2023-07-30T11:21:46;19.30;99.90
12568;DHT22;6349;50.904;6.136;2023-07-30T11:23:47;19.20;99.90
12568;DHT22;6349;50.904;6.136;2023-07-30T11:25:50;19.20;99.90
12568;DHT22;6349;50.904;6.136;2023-07-30T11:27:52;19.20;99.90
12568;DHT22;6349;50.904;6.136;2023-07-30T11:29:56;19.30;99.90
12568;DHT22;6349;50.904;6.136;2023-07-30T11:31:59;19.20;99.90
12568;DHT22;6349;50.904;6.136;2023-07-30T11:34:01;19.20;99.90
12568;DHT22;6349;50.904;6.136;2023-07-30T11:36:03;19.20;99.90
12568;DHT22;6349;50.904;6.136;2023-07-30T11:38:05;19.20;99.90
12568;DHT22;6349;50.904;6.136;2023-07-30T11:40:12;19.30;99.90
12568;DHT22;6349;50.904;6.136;2023-07-30T11:42:14;19.30;99.90
12568;DHT22;6349;50.904;6.136;2023-07-30T11:44:36;19.30;99.90
12568;DHT22;6349;50.904;6.136;2023-07-30T11:46:53;19.30;99.90
12568;DHT22;6349;50.904;6.136;2023-07-30T11:49:16;19.30;99.90
12568;DHT22;6349;50.904;6.136;2023-07-30T11:51:26;19.30;99.90
12568;DHT22;6349;50.904;6.136;2023-07-30T11:53:46;19.30;99.90
12568;DHT22;6349;50.904;6.136;2023-07-30T11:55:49;19.40;99.90
12568;DHT22;6349;50.904;6.136;2023-07-30T11:57:51;19.50;99.90
12568;DHT22;6349;50.904;6.136;2023-07-30T11:59:53;19.60;99.90
12568;DHT22;6349;50.904;6.136;2023-07-30T12:01:55;19.60;99.90
12568;DHT22;6349;50.904;6.136;2023-07-30T12:03:58;19.60;99.90
12568;DHT22;6349;50.904;6.136;2023-07-30T12:06:04;19.60;99.90
12568;DHT22;6349;50.904;6.136;2023-07-30T12:08:13;19.80;99.90
12568;DHT22;6349;50.904;6.136;2023-07-30T12:10:17;20.00;99.90
12568;DHT22;6349;50.904;6.136;2023-07-30T12:12:25;20.10;99.90
12568;DHT22;6349;50.904;6.136;2023-07-30T12:14:28;20.10;99.90
12568;DHT22;6349;50.904;6.136;2023-07-30T12:16:34;20.00;99.90
12568;DHT22;6349;50.904;6.136;2023-07-30T12:18:36;19.90;99.90
12568;DHT22;6349;50.904;6.136;2023-07-30T12:20:38;19.80;99.90
12568;DHT22;6349;50.904;6.136;2023-07-30T12:22:40;19.70;99.90
12568;DHT22;6349;50.904;6.136;2023-07-30T12:24:43;19.60;99.90
12568;DHT22;6349;50.904;6.136;2023-07-30T12:26:43;19.50;99.90
12568;DHT22;6349;50.904;6.136;2023-07-30T12:28:44;19.50;99.90
12568;DHT22;6349;50.904;6.136;2023-07-30T12:30:45;19.60;99.90
12568;DHT22;6349;50.904;6.136;2023-07-30T12:32:47;19.80;99.90
12568;DHT22;6349;50.904;6.136;2023-07-30T12:34:48;19.90;99.90
12568;DHT22;6349;50.904;6.136;2023-07-30T12:36:48;20.20;99.90
12568;DHT22;6349;50.904;6.136;2023-07-30T12:38:51;20.30;99.90
12568;DHT22;6349;50.904;6.136;2023-07-30T12:40:53;20.40;99.90
12568;DHT22;6349;50.904;6.136;2023-07-30T12:42:53;20.70;99.90
12568;DHT22;6349;50.904;6.136;2023-07-30T12:44:54;20.80;99.90
12568;DHT22;6349;50.904;6.136;2023-07-30T12:46:56;21.00;99.90
12568;DHT22;6349;50.904;6.136;2023-07-30T12:48:56;21.10;99.90
12568;DHT22;6349;50.904;6.136;2023-07-30T12:50:58;21.20;99.90
12568;DHT22;6349;50.904;6.136;2023-07-30T12:52:59;21.10;99.90
12568;DHT22;6349;50.904;6.136;2023-07-30T12:55:01;21.20;99.90
12568;DHT22;6349;50.904;6.136;2023-07-30T12:57:06;21.20;99.90
12568;DHT22;6349;50.904;6.136;2023-07-30T12:59:08;21.20;99.90
12568;DHT22;6349;50.904;6.136;2023-07-30T13:01:09;21.00;99.90
12568;DHT22;6349;50.904;6.136;2023-07-30T13:03:11;21.00;99.90